Time;durP1;ratioP1;P1;durP2;ratioP2;P2;SDS_P1;SDS_P2;PMS_P1;PMS_P2;Temp;Humidity;BMP_temperature;BMP_pressure;BME280_temperature;BME280_humidity;BME280_pressure;Samples;Min_cycle;Max_cycle;Signal;HPM_P1;HPM_P2
2023/12/16 00:00:43;;;;;;;18.70;4.25;;;7.10;99.90;;;;;;5067938;28;20060;-64
2023/12/16 00:03:10;;;;;;;22.65;4.63;;;7.10;99.90;;;;;;5065145;28;20036;-63
2023/12/16 00:05:37;;;;;;;20.13;3.80;;;7.10;99.90;;;;;;5070299;28;20064;-63
2023/12/16 00:08:04;;;;;;;9.23;3.00;;;7.20;99.90;;;;;;5074345;28;20043;-62
2023/12/16 00:10:31;;;;;;;21.55;3.83;;;7.20;99.90;;;;;;5046125;28;20062;-63
2023/12/16 00:12:58;;;;;;;18.85;5.45;;;7.30;99.90;;;;;;5058935;28;20669;-63
2023/12/16 00:15:26;;;;;;;18.58;4.32;;;7.30;99.90;;;;;;5069121;28;20052;-63
2023/12/16 00:17:52;;;;;;;22.25;5.63;;;7.30;99.90;;;;;;5067233;28;20052;-63
2023/12/16 00:20:20;;;;;;;23.90;3.63;;;7.40;99.90;;;;;;5070633;28;20052;-63
2023/12/16 00:22:47;;;;;;;19.48;3.53;;;7.40;99.90;;;;;;5066612;28;20471;-64
2023/12/16 00:25:14;;;;;;;23.65;4.50;;;7.40;99.90;;;;;;5064956;28;20499;-64
2023/12/16 00:27:41;;;;;;;27.08;5.85;;;7.40;99.90;;;;;;5072501;28;20054;-63
2023/12/16 00:30:08;;;;;;;19.58;3.65;;;7.40;99.90;;;;;;5076151;28;20041;-64
2023/12/16 00:32:37;;;;;;;22.20;4.07;;;7.40;99.90;;;;;;5072173;28;20056;-63
2023/12/16 00:35:08;;;;;;;17.45;3.30;;;7.40;99.90;;;;;;5068245;28;20131;-64
2023/12/16 00:37:35;;;;;;;14.93;3.72;;;7.40;99.90;;;;;;5066894;28;20056;-63
2023/12/16 00:40:03;;;;;;;19.67;3.53;;;7.40;99.90;;;;;;5073152;28;20361;-63
2023/12/16 00:42:30;;;;;;;16.30;3.13;;;7.40;99.90;;;;;;5074027;28;20044;-63
2023/12/16 00:44:57;;;;;;;14.30;3.38;;;7.40;99.90;;;;;;5070835;28;20077;-63
2023/12/16 00:47:25;;;;;;;23.38;3.13;;;7.40;99.90;;;;;;5077014;28;20793;-65
2023/12/16 00:49:51;;;;;;;15.75;3.47;;;7.40;99.90;;;;;;5075567;28;20148;-63
2023/12/16 00:52:18;;;;;;;14.45;2.72;;;7.40;99.90;;;;;;5069283;28;20040;-64
2023/12/16 00:54:45;;;;;;;17.73;4.50;;;7.40;99.90;;;;;;5054846;28;20156;-64
2023/12/16 00:57:12;;;;;;;19.10;3.50;;;7.50;99.90;;;;;;5073647;28;20153;-65
2023/12/16 00:59:39;;;;;;;20.63;3.42;;;7.50;99.90;;;;;;5066172;28;20060;-64
2023/12/16 01:02:07;;;;;;;15.65;3.17;;;7.50;99.90;;;;;;5070020;28;20135;-64
2023/12/16 01:04:34;;;;;;;13.35;3.63;;;7.50;99.90;;;;;;5076238;28;20795;-64
2023/12/16 01:07:02;;;;;;;12.38;3.55;;;7.50;99.90;;;;;;5052660;28;20078;-63
2023/12/16 01:09:29;;;;;;;14.77;3.30;;;7.50;99.90;;;;;;4724526;28;9999735;-64
2023/12/16 01:11:56;;;;;;;19.08;3.70;;;7.50;99.90;;;;;;5076878;28;20044;-63
2023/12/16 01:14:23;;;;;;;15.25;3.78;;;7.50;99.90;;;;;;5075633;28;20044;-64
2023/12/16 01:16:49;;;;;;;15.77;2.70;;;7.50;99.90;;;;;;5071993;28;20044;-64
2023/12/16 01:19:16;;;;;;;14.02;3.33;;;7.50;99.90;;;;;;5067890;28;20051;-64
2023/12/16 01:21:43;;;;;;;15.40;3.35;;;7.50;99.90;;;;;;5068504;28;20044;-64
2023/12/16 01:24:10;;;;;;;14.50;2.30;;;7.60;99.90;;;;;;5050600;28;20567;-63
2023/12/16 01:26:37;;;;;;;8.18;2.78;;;7.60;99.90;;;;;;5067293;28;20051;-63
2023/12/16 01:29:04;;;;;;;14.52;2.70;;;7.50;99.90;;;;;;5067717;28;20044;-63
2023/12/16 01:31:31;;;;;;;13.82;2.60;;;7.60;99.90;;;;;;5082549;28;20041;-63
2023/12/16 01:33:58;;;;;;;14.88;3.13;;;7.50;99.90;;;;;;5032230;28;20296;-63
2023/12/16 01:36:25;;;;;;;9.57;2.50;;;7.60;99.90;;;;;;5065187;28;20049;-63
2023/12/16 01:38:52;;;;;;;9.77;1.73;;;7.60;99.90;;;;;;5066268;28;20063;-63
2023/12/16 01:41:19;;;;;;;11.70;2.42;;;7.60;99.90;;;;;;5066856;28;20087;-64
2023/12/16 01:43:46;;;;;;;11.32;2.25;;;7.60;99.90;;;;;;5070350;28;20426;-63
2023/12/16 01:46:13;;;;;;;12.63;2.28;;;7.60;99.90;;;;;;5066629;28;20129;-64
2023/12/16 01:48:40;;;;;;;13.25;4.40;;;7.70;99.90;;;;;;5049980;28;20072;-64
2023/12/16 01:51:08;;;;;;;11.60;2.65;;;7.70;99.90;;;;;;5068243;28;20503;-63
2023/12/16 01:53:35;;;;;;;11.13;2.70;;;7.70;99.90;;;;;;5064290;28;20121;-63
2023/12/16 01:56:01;;;;;;;11.50;3.13;;;7.80;99.90;;;;;;5050281;28;20137;-63
2023/12/16 01:58:28;;;;;;;6.72;2.85;;;7.90;99.90;;;;;;5083407;28;20135;-63
2023/12/16 02:00:55;;;;;;;10.07;2.55;;;7.90;99.90;;;;;;5067402;28;20052;-63
2023/12/16 02:03:22;;;;;;;10.38;2.35;;;8.00;99.90;;;;;;5067918;28;20111;-63
2023/12/16 02:05:49;;;;;;;8.88;2.17;;;8.00;99.90;;;;;;5067347;28;20052;-63
2023/12/16 02:08:16;;;;;;;10.20;2.30;;;8.00;99.90;;;;;;5067756;28;20040;-63
2023/12/16 02:10:43;;;;;;;16.25;2.75;;;8.00;99.90;;;;;;5050212;28;20049;-63
2023/12/16 02:13:10;;;;;;;7.05;2.38;;;8.10;99.90;;;;;;5067652;28;20045;-63
2023/12/16 02:15:37;;;;;;;8.90;2.15;;;8.10;99.90;;;;;;5067501;28;20094;-63
2023/12/16 02:18:04;;;;;;;8.95;2.13;;;8.10;99.90;;;;;;5067121;28;20412;-63
2023/12/16 02:20:31;;;;;;;9.60;2.25;;;8.20;99.90;;;;;;5049629;28;20522;-63
2023/12/16 02:22:59;;;;;;;10.88;2.42;;;8.20;99.90;;;;;;5031162;28;20160;-63
2023/12/16 02:25:26;;;;;;;8.75;2.47;;;8.30;99.90;;;;;;5049459;28;20113;-63
2023/12/16 02:27:53;;;;;;;11.07;1.80;;;8.30;99.90;;;;;;5065253;28;20049;-64
2023/12/16 02:30:20;;;;;;;12.20;4.47;;;8.30;99.90;;;;;;5066205;28;20543;-65
2023/12/16 02:32:47;;;;;;;9.05;1.83;;;8.30;99.90;;;;;;5067360;28;20070;-64
2023/12/16 02:35:14;;;;;;;9.75;2.83;;;8.40;99.90;;;;;;5066709;28;20058;-62
2023/12/16 02:37:41;;;;;;;7.25;1.70;;;8.40;99.90;;;;;;5067422;28;20052;-63
2023/12/16 02:40:09;;;;;;;8.13;2.22;;;8.40;99.90;;;;;;5066843;28;20136;-63
2023/12/16 02:42:36;;;;;;;12.45;2.25;;;8.40;99.90;;;;;;5067676;28;20087;-65
2023/12/16 02:45:03;;;;;;;9.02;2.10;;;8.40;99.90;;;;;;5048743;28;20056;-64
2023/12/16 02:47:29;;;;;;;9.05;1.88;;;8.40;99.90;;;;;;5066901;28;20090;-64
2023/12/16 02:49:56;;;;;;;11.27;1.80;;;8.40;99.90;;;;;;5048947;28;20041;-64
2023/12/16 02:52:23;;;;;;;11.68;2.28;;;8.40;99.90;;;;;;5064392;28;20436;-63
2023/12/16 02:54:50;;;;;;;10.23;1.83;;;8.40;99.90;;;;;;5066946;28;20163;-64
2023/12/16 02:57:17;;;;;;;8.25;1.98;;;8.40;99.90;;;;;;5046447;28;20127;-64
2023/12/16 02:59:44;;;;;;;9.13;2.83;;;8.40;99.90;;;;;;5066685;28;20063;-64
2023/12/16 03:02:11;;;;;;;14.43;2.00;;;8.50;99.90;;;;;;5072414;28;20046;-65
2023/12/16 03:04:37;;;;;;;9.63;2.10;;;8.50;99.90;;;;;;5066599;28;20052;-64
2023/12/16 03:07:04;;;;;;;13.73;2.53;;;8.40;99.90;;;;;;5067107;28;20044;-63
2023/12/16 03:09:31;;;;;;;10.13;2.77;;;8.40;99.90;;;;;;4715286;28;10000536;-64
2023/12/16 03:12:00;;;;;;;7.50;2.33;;;8.40;99.90;;;;;;5061577;28;20110;-63
2023/12/16 03:14:27;;;;;;;10.55;2.03;;;8.40;99.90;;;;;;5043801;28;20037;-63
2023/12/16 03:16:54;;;;;;;7.30;1.63;;;8.50;99.90;;;;;;5063833;28;20457;-63
2023/12/16 03:19:21;;;;;;;11.65;2.13;;;8.40;99.90;;;;;;5066558;28;20041;-64
2023/12/16 03:21:48;;;;;;;11.95;3.35;;;8.40;99.90;;;;;;5065198;28;20075;-64
2023/12/16 03:24:15;;;;;;;6.13;1.75;;;8.50;99.90;;;;;;5065348;28;20041;-64
2023/12/16 03:26:42;;;;;;;6.70;1.90;;;8.50;99.90;;;;;;5066095;28;20102;-64
2023/12/16 03:29:09;;;;;;;5.80;1.42;;;8.50;99.90;;;;;;5064339;28;20045;-64
2023/12/16 03:31:36;;;;;;;8.60;1.83;;;8.50;99.90;;;;;;5048046;28;20044;-64
2023/12/16 03:34:03;;;;;;;7.00;1.85;;;8.50;99.90;;;;;;5066373;28;20442;-64
2023/12/16 03:36:30;;;;;;;6.25;1.85;;;8.50;99.90;;;;;;5066363;28;20048;-63
2023/12/16 03:38:57;;;;;;;6.80;1.95;;;8.50;99.90;;;;;;5066551;28;20048;-63
2023/12/16 03:41:24;;;;;;;9.88;2.17;;;8.50;99.90;;;;;;5065999;28;20156;-63
2023/12/16 03:43:51;;;;;;;7.65;1.85;;;8.50;99.90;;;;;;5066223;28;20056;-64
2023/12/16 03:46:18;;;;;;;6.55;1.48;;;8.50;99.90;;;;;;5066056;28;20072;-63
2023/12/16 03:48:44;;;;;;;9.30;1.98;;;8.50;99.90;;;;;;5067351;28;20048;-65
2023/12/16 03:51:11;;;;;;;5.38;1.27;;;8.60;99.90;;;;;;5070354;28;20056;-63
2023/12/16 03:53:39;;;;;;;8.68;1.83;;;8.60;99.90;;;;;;5070097;28;20052;-64
2023/12/16 03:56:06;;;;;;;4.63;1.27;;;8.60;99.90;;;;;;5070177;28;20055;-63
2023/12/16 03:58:33;;;;;;;4.50;1.27;;;8.60;99.90;;;;;;5068843;28;20041;-63
2023/12/16 04:00:59;;;;;;;3.45;1.50;;;8.60;99.90;;;;;;5069668;28;20476;-63
2023/12/16 04:03:26;;;;;;;3.00;1.50;;;8.60;99.90;;;;;;5070152;28;20195;-63
2023/12/16 04:05:53;;;;;;;3.80;1.35;;;8.70;99.90;;;;;;5063580;28;20565;-63
2023/12/16 04:08:20;;;;;;;7.57;1.80;;;8.70;99.90;;;;;;5062548;28;20044;-63
2023/12/16 04:10:47;;;;;;;4.35;1.73;;;8.70;99.90;;;;;;5069868;28;20075;-63
2023/12/16 04:13:15;;;;;;;4.60;1.67;;;8.80;99.90;;;;;;5069334;28;20527;-62
2023/12/16 04:15:42;;;;;;;8.15;2.42;;;8.80;99.90;;;;;;5070011;28;20055;-63
2023/12/16 04:18:09;;;;;;;4.05;1.30;;;8.80;99.90;;;;;;5069783;28;20048;-63
2023/12/16 04:20:36;;;;;;;3.67;1.30;;;8.80;99.90;;;;;;5069322;28;20055;-65
2023/12/16 04:23:03;;;;;;;8.30;1.40;;;8.80;99.90;;;;;;5068125;28;20087;-65
2023/12/16 04:25:29;;;;;;;2.10;1.20;;;8.80;99.90;;;;;;5069446;28;20156;-65
2023/12/16 04:27:57;;;;;;;3.53;0.93;;;8.80;99.90;;;;;;5069403;28;20578;-65
2023/12/16 04:30:23;;;;;;;2.83;1.10;;;8.90;99.90;;;;;;5069851;28;20075;-64
2023/12/16 04:32:50;;;;;;;6.13;1.52;;;8.90;99.90;;;;;;5069604;28;20059;-65
2023/12/16 04:35:17;;;;;;;3.20;1.30;;;8.90;99.90;;;;;;5069570;28;20499;-65
2023/12/16 04:37:44;;;;;;;3.97;1.13;;;9.00;99.90;;;;;;5072836;28;20052;-65
2023/12/16 04:40:11;;;;;;;4.50;1.25;;;9.00;99.90;;;;;;5069190;28;20415;-64
2023/12/16 04:42:43;;;;;;;1.70;1.08;;;9.10;99.90;;;;;;5069125;28;20265;-64
2023/12/16 04:45:11;;;;;;;2.35;1.20;;;9.10;99.90;;;;;;5068958;28;20048;-64
2023/12/16 04:47:37;;;;;;;3.25;0.98;;;9.10;99.90;;;;;;5069193;28;20060;-64
2023/12/16 04:50:05;;;;;;;1.70;0.93;;;9.10;99.90;;;;;;5069597;28;20092;-65
2023/12/16 04:52:32;;;;;;;2.13;1.00;;;9.10;99.90;;;;;;5078232;28;20044;-65
2023/12/16 04:54:59;;;;;;;1.50;0.70;;;9.20;99.90;;;;;;5083579;28;20059;-65
2023/12/16 04:57:26;;;;;;;4.05;0.60;;;9.20;99.90;;;;;;5069425;28;20163;-64
2023/12/16 04:59:53;;;;;;;1.65;0.82;;;9.20;99.90;;;;;;5050646;28;20105;-65
2023/12/16 05:02:20;;;;;;;1.95;0.70;;;9.30;99.90;;;;;;5068781;28;20092;-65
2023/12/16 05:04:46;;;;;;;1.98;0.70;;;9.30;99.90;;;;;;5068748;28;20434;-64
2023/12/16 05:07:13;;;;;;;3.25;0.63;;;9.30;99.90;;;;;;5069019;28;20049;-65
2023/12/16 05:09:40;;;;;;;0.98;0.60;;;9.30;99.90;;;;;;5066552;28;20070;-64
2023/12/16 05:12:07;;;;;;;1.70;0.70;;;9.30;99.90;;;;;;5068234;28;20101;-64
2023/12/16 05:14:34;;;;;;;2.30;0.65;;;9.40;99.90;;;;;;5068363;28;20053;-65
2023/12/16 05:17:00;;;;;;;2.92;0.70;;;9.40;99.90;;;;;;5050659;28;20052;-65
2023/12/16 05:19:27;;;;;;;1.80;0.45;;;9.40;99.90;;;;;;5050450;28;20506;-65
2023/12/16 05:21:54;;;;;;;3.17;0.68;;;9.50;99.90;;;;;;5074317;28;20107;-64
2023/12/16 05:24:21;;;;;;;1.50;0.73;;;9.50;99.90;;;;;;5068321;28;20063;-65
2023/12/16 05:26:48;;;;;;;1.20;0.65;;;9.50;99.90;;;;;;5068355;28;20053;-64
2023/12/16 05:29:15;;;;;;;1.83;0.60;;;9.50;99.90;;;;;;5068583;28;20052;-65
2023/12/16 05:31:42;;;;;;;1.33;0.50;;;9.50;99.90;;;;;;5067395;28;20083;-64
2023/12/16 05:34:10;;;;;;;3.75;1.75;;;9.50;99.90;;;;;;5068414;28;20090;-67
2023/12/16 05:36:37;;;;;;;5.55;0.85;;;9.50;99.90;;;;;;5067378;28;20139;-64
2023/12/16 05:39:05;;;;;;;1.80;0.60;;;9.60;99.90;;;;;;5068137;28;20048;-65
2023/12/16 05:41:32;;;;;;;0.35;0.35;;;9.60;99.90;;;;;;5068016;28;20051;-64
2023/12/16 05:43:59;;;;;;;0.73;0.38;;;9.60;99.90;;;;;;5050250;28;20463;-65
2023/12/16 05:46:25;;;;;;;1.10;0.75;;;9.60;99.90;;;;;;5067649;28;20565;-64
2023/12/16 05:48:52;;;;;;;1.48;0.50;;;9.60;99.90;;;;;;5066095;28;20403;-65
2023/12/16 05:51:19;;;;;;;1.75;0.65;;;9.60;99.90;;;;;;5068001;28;20102;-65
2023/12/16 05:53:46;;;;;;;1.20;0.70;;;9.60;99.90;;;;;;5073748;28;20041;-65
2023/12/16 05:56:13;;;;;;;1.70;0.60;;;9.60;99.90;;;;;;5067696;28;20178;-65
2023/12/16 05:58:40;;;;;;;1.48;0.60;;;9.60;99.90;;;;;;5068030;28;20078;-64
2023/12/16 06:01:07;;;;;;;1.17;0.70;;;9.60;99.90;;;;;;5067739;28;20139;-65
2023/12/16 06:03:34;;;;;;;2.38;0.80;;;9.60;99.90;;;;;;5049297;28;20052;-64
2023/12/16 06:06:00;;;;;;;1.65;0.77;;;9.70;99.90;;;;;;5067856;28;20048;-64
2023/12/16 06:08:27;;;;;;;1.63;0.70;;;9.70;99.90;;;;;;5064914;28;20086;-64
2023/12/16 06:10:54;;;;;;;3.40;0.60;;;9.70;99.90;;;;;;5049486;28;20044;-64
2023/12/16 06:13:21;;;;;;;1.23;0.65;;;9.70;99.90;;;;;;5067195;28;20036;-64
2023/12/16 06:15:48;;;;;;;2.45;0.98;;;9.70;99.90;;;;;;5067391;28;20055;-65
2023/12/16 06:18:18;;;;;;;2.88;1.10;;;9.70;99.90;;;;;;5048491;28;20068;-64
2023/12/16 06:20:45;;;;;;;0.98;0.80;;;9.70;99.90;;;;;;5061195;28;20525;-64
2023/12/16 06:23:12;;;;;;;1.90;0.98;;;9.70;99.90;;;;;;5064251;28;20118;-64
2023/12/16 06:25:38;;;;;;;4.15;1.17;;;9.70;99.90;;;;;;5066508;28;20056;-64
2023/12/16 06:28:05;;;;;;;1.88;0.65;;;9.70;99.90;;;;;;5066647;28;20389;-64
2023/12/16 06:30:33;;;;;;;0.98;0.95;;;9.70;99.90;;;;;;5067295;28;20450;-65
2023/12/16 06:33:00;;;;;;;2.55;1.00;;;9.70;99.90;;;;;;5063441;28;20048;-64
2023/12/16 06:35:27;;;;;;;2.33;1.10;;;9.70;99.90;;;;;;5067376;28;20044;-65
2023/12/16 06:37:54;;;;;;;5.18;1.40;;;9.70;99.90;;;;;;5066604;28;20102;-64
2023/12/16 06:40:21;;;;;;;2.83;1.08;;;9.70;99.90;;;;;;5065594;28;20048;-65
2023/12/16 06:42:47;;;;;;;1.70;1.00;;;9.70;99.90;;;;;;5064867;28;20547;-64
2023/12/16 06:45:14;;;;;;;2.88;0.90;;;9.70;99.90;;;;;;5058782;28;20055;-64
2023/12/16 06:47:41;;;;;;;1.50;0.98;;;9.70;99.90;;;;;;5082253;28;20048;-65
2023/12/16 06:50:09;;;;;;;0.88;0.80;;;9.80;99.90;;;;;;5066894;28;20090;-64
2023/12/16 06:52:36;;;;;;;2.58;0.93;;;9.70;99.90;;;;;;5064622;28;20075;-64
2023/12/16 06:55:03;;;;;;;0.90;0.63;;;9.80;99.90;;;;;;5061329;28;20055;-65
2023/12/16 06:57:30;;;;;;;2.95;0.63;;;9.80;99.90;;;;;;5066585;28;20064;-64
2023/12/16 06:59:57;;;;;;;2.42;0.80;;;9.80;99.90;;;;;;5081577;28;20105;-64
2023/12/16 07:02:24;;;;;;;5.50;2.17;;;9.80;99.90;;;;;;5066519;28;20063;-64
2023/12/16 07:04:51;;;;;;;2.80;1.70;;;9.80;99.90;;;;;;5066418;28;20124;-64
2023/12/16 07:07:18;;;;;;;1.75;0.98;;;9.80;99.90;;;;;;5067201;28;20102;-65
2023/12/16 07:09:45;;;;;;;2.75;0.80;;;9.80;99.90;;;;;;5066856;28;20517;-65
2023/12/16 07:12:12;;;;;;;2.15;0.85;;;9.90;99.90;;;;;;5067173;28;20056;-64
2023/12/16 07:14:39;;;;;;;0.98;0.88;;;10.00;99.90;;;;;;5068594;28;20047;-65
2023/12/16 07:17:05;;;;;;;1.42;1.00;;;9.90;99.90;;;;;;5048937;28;20052;-65
2023/12/16 07:19:34;;;;;;;3.65;0.68;;;9.90;99.90;;;;;;5066111;28;20072;-65
2023/12/16 07:22:02;;;;;;;1.40;0.80;;;9.90;99.90;;;;;;5066430;28;20484;-65
2023/12/16 07:24:29;;;;;;;1.38;0.73;;;9.90;99.90;;;;;;5064581;28;20492;-65
2023/12/16 07:26:55;;;;;;;1.55;0.80;;;9.90;99.90;;;;;;5082007;28;20130;-64
2023/12/16 07:29:22;;;;;;;1.60;0.80;;;10.00;99.90;;;;;;5066551;28;20037;-64
2023/12/16 07:31:50;;;;;;;2.90;0.93;;;10.00;99.90;;;;;;5048594;28;20055;-64
2023/12/16 07:34:17;;;;;;;1.13;0.70;;;10.00;99.90;;;;;;5081611;28;20041;-64
2023/12/16 07:36:44;;;;;;;1.58;0.63;;;10.00;99.90;;;;;;5066460;28;20698;-64
2023/12/16 07:39:11;;;;;;;2.13;0.50;;;10.00;99.90;;;;;;5066704;28;20534;-64
2023/12/16 07:41:37;;;;;;;1.33;0.90;;;10.10;99.90;;;;;;5065573;28;20141;-64
2023/12/16 07:44:04;;;;;;;5.47;0.85;;;10.10;99.90;;;;;;5062758;28;20107;-64
2023/12/16 07:46:31;;;;;;;4.80;0.93;;;10.10;99.90;;;;;;5065546;28;20063;-64
2023/12/16 07:48:58;;;;;;;2.00;0.95;;;10.10;99.90;;;;;;5066459;28;20040;-64
2023/12/16 07:51:25;;;;;;;2.38;0.82;;;10.10;99.90;;;;;;5066117;28;20118;-63
2023/12/16 07:53:53;;;;;;;2.50;1.00;;;10.10;99.90;;;;;;5063339;28;20089;-64
2023/12/16 07:56:23;;;;;;;2.80;1.25;;;10.10;99.90;;;;;;5078520;28;20048;-63
2023/12/16 07:58:50;;;;;;;1.35;1.08;;;10.10;99.90;;;;;;5066721;28;20044;-65
2023/12/16 08:01:18;;;;;;;2.72;1.02;;;10.10;99.90;;;;;;5047887;28;20047;-64
2023/12/16 08:03:46;;;;;;;1.88;0.70;;;10.10;99.90;;;;;;5063300;28;20131;-64
2023/12/16 08:06:16;;;;;;;3.85;1.10;;;10.10;99.90;;;;;;5065943;28;20052;-64
2023/12/16 08:08:44;;;;;;;4.53;1.15;;;10.20;99.90;;;;;;5064226;28;20053;-63
2023/12/16 08:11:12;;;;;;;1.50;1.02;;;10.10;99.90;;;;;;4710376;28;9999899;-64
2023/12/16 08:13:38;;;;;;;4.15;1.38;;;10.20;99.90;;;;;;5063053;28;20137;-64
2023/12/16 08:16:07;;;;;;;2.90;1.30;;;10.20;99.90;;;;;;5044246;28;20040;-63
2023/12/16 08:18:34;;;;;;;2.22;1.27;;;10.20;99.90;;;;;;5064623;28;20056;-64
2023/12/16 08:21:01;;;;;;;2.30;1.08;;;10.20;99.90;;;;;;5067320;28;20049;-63
2023/12/16 08:23:28;;;;;;;22.42;6.15;;;10.20;99.90;;;;;;5069512;28;20048;-64
2023/12/16 08:25:55;;;;;;;4.32;1.58;;;10.20;99.90;;;;;;5062816;28;20559;-64
2023/12/16 08:28:23;;;;;;;1.83;1.55;;;10.20;99.90;;;;;;5053925;28;20108;-64
2023/12/16 08:30:52;;;;;;;3.22;1.95;;;10.20;99.90;;;;;;5055147;28;20115;-66
2023/12/16 08:33:19;;;;;;;1.75;1.25;;;10.20;99.90;;;;;;5071054;28;20117;-65
2023/12/16 08:35:46;;;;;;;5.65;1.33;;;10.20;99.90;;;;;;5074251;28;20070;-66
2023/12/16 08:38:13;;;;;;;1.60;1.30;;;10.20;99.90;;;;;;5071192;28;20048;-64
2023/12/16 08:40:40;;;;;;;2.70;1.00;;;10.30;99.90;;;;;;5073316;28;20044;-64
2023/12/16 08:43:07;;;;;;;4.18;2.58;;;10.30;99.90;;;;;;5078534;28;20215;-64
2023/12/16 08:45:34;;;;;;;1.63;1.20;;;10.30;99.90;;;;;;5074939;28;20048;-65
2023/12/16 08:48:01;;;;;;;1.50;1.00;;;10.30;99.90;;;;;;5071064;28;20099;-65
2023/12/16 08:50:28;;;;;;;2.13;1.55;;;10.30;99.90;;;;;;5070237;28;20131;-65
2023/12/16 08:52:55;;;;;;;3.72;1.52;;;10.30;99.90;;;;;;5077194;28;20056;-64
2023/12/16 08:55:24;;;;;;;1.70;1.00;;;10.40;99.90;;;;;;5077460;28;20044;-62
2023/12/16 08:57:51;;;;;;;1.20;0.95;;;10.30;99.90;;;;;;5072619;28;20513;-64
2023/12/16 09:00:19;;;;;;;1.13;0.95;;;10.40;99.90;;;;;;5072970;28;20059;-64
2023/12/16 09:02:46;;;;;;;1.40;0.98;;;10.40;99.90;;;;;;5075705;28;20054;-64
2023/12/16 09:05:13;;;;;;;2.17;1.02;;;10.40;99.90;;;;;;5075955;28;20571;-63
2023/12/16 09:07:39;;;;;;;4.25;1.55;;;10.30;99.90;;;;;;5073195;28;20443;-63
2023/12/16 09:10:07;;;;;;;1.17;0.60;;;10.40;99.90;;;;;;5071638;28;20054;-63
2023/12/16 09:12:35;;;;;;;1.00;0.70;;;10.40;99.90;;;;;;5072584;28;20059;-63
2023/12/16 09:15:02;;;;;;;7.22;1.40;;;10.40;99.90;;;;;;5073917;28;20420;-63
2023/12/16 09:17:29;;;;;;;0.85;0.70;;;10.40;99.90;;;;;;5074453;28;20059;-63
2023/12/16 09:19:56;;;;;;;1.38;0.50;;;10.40;99.90;;;;;;5073884;28;20094;-63
2023/12/16 09:22:23;;;;;;;1.88;0.57;;;10.50;99.90;;;;;;5069921;28;20049;-63
2023/12/16 09:24:50;;;;;;;3.25;0.60;;;10.50;99.90;;;;;;5075820;28;20129;-63
2023/12/16 09:27:17;;;;;;;1.40;0.82;;;10.50;99.90;;;;;;5071691;28;20048;-61
2023/12/16 09:29:44;;;;;;;2.22;1.00;;;10.60;99.90;;;;;;5064519;28;20056;-61
2023/12/16 09:32:11;;;;;;;0.40;0.40;;;10.60;99.90;;;;;;5085036;28;20097;-62
2023/12/16 09:34:37;;;;;;;1.13;0.82;;;10.70;99.90;;;;;;5061769;28;20109;-63
2023/12/16 09:37:05;;;;;;;1.92;0.77;;;10.60;99.90;;;;;;5073964;28;20067;-62
2023/12/16 09:39:32;;;;;;;2.15;1.33;;;10.60;99.90;;;;;;5064227;28;20553;-63
2023/12/16 09:41:59;;;;;;;1.88;1.13;;;10.70;99.90;;;;;;5065205;28;20048;-63
2023/12/16 09:44:26;;;;;;;1.45;1.00;;;10.60;99.90;;;;;;5033077;28;20052;-61
2023/12/16 09:46:53;;;;;;;5.43;0.95;;;10.60;99.90;;;;;;5046093;28;20048;-61
2023/12/16 09:49:20;;;;;;;4.35;0.93;;;10.60;99.90;;;;;;5033939;28;20057;-62
2023/12/16 09:51:47;;;;;;;2.33;1.00;;;10.70;99.90;;;;;;5059103;28;20040;-62
2023/12/16 09:54:16;;;;;;;1.58;1.02;;;10.70;99.90;;;;;;5074982;28;20109;-62
2023/12/16 09:56:44;;;;;;;2.83;1.05;;;10.70;99.90;;;;;;5075226;28;20136;-63
2023/12/16 09:59:11;;;;;;;2.53;1.42;;;10.70;99.90;;;;;;5043531;28;20056;-62
2023/12/16 10:01:38;;;;;;;2.33;1.38;;;10.70;99.90;;;;;;5059185;28;20106;-62
2023/12/16 10:04:04;;;;;;;2.95;1.00;;;10.70;99.90;;;;;;5085624;28;20043;-61
2023/12/16 10:06:31;;;;;;;1.75;1.20;;;10.80;99.90;;;;;;5054275;28;20127;-62
2023/12/16 10:08:58;;;;;;;3.47;1.23;;;10.80;99.90;;;;;;5066799;28;20048;-62
2023/12/16 10:11:25;;;;;;;0.50;0.50;;;10.80;99.90;;;;;;5058255;28;20049;-64
2023/12/16 10:14:03;;;;;;;1.25;0.50;;;10.80;99.90;;;;;;5064742;28;20052;-65
2023/12/16 10:16:32;;;;;;;1.77;0.60;;;10.90;99.90;;;;;;5056139;28;20538;-64
2023/12/16 10:18:59;;;;;;;4.07;1.00;;;10.90;99.90;;;;;;5055924;28;20049;-69
2023/12/16 10:21:33;;;;;;;4.05;1.20;;;11.00;99.90;;;;;;5058635;28;20094;-64
2023/12/16 10:24:00;;;;;;;1.58;0.50;;;11.10;99.90;;;;;;5059307;28;20056;-63
2023/12/16 10:26:31;;;;;;;2.75;1.40;;;11.10;99.90;;;;;;5062034;28;20479;-64
2023/12/16 10:28:59;;;;;;;1.50;0.52;;;11.10;99.90;;;;;;5061951;28;20563;-64
2023/12/16 10:31:26;;;;;;;6.20;0.65;;;11.20;99.90;;;;;;5026821;28;20434;-64
2023/12/16 10:33:53;;;;;;;1.80;0.80;;;11.20;99.90;;;;;;5040892;28;20068;-63
2023/12/16 10:36:20;;;;;;;1.65;0.90;;;11.20;99.90;;;;;;5059448;28;20491;-63
2023/12/16 10:38:47;;;;;;;1.08;0.77;;;11.20;99.90;;;;;;5040578;28;20756;-63
2023/12/16 10:41:14;;;;;;;4.63;3.25;;;11.20;99.90;;;;;;5062601;28;20056;-64
2023/12/16 10:43:41;;;;;;;13.00;7.97;;;11.20;99.90;;;;;;5062249;28;20048;-62
2023/12/16 10:46:08;;;;;;;11.25;6.88;;;11.30;99.90;;;;;;5053501;28;20127;-62
2023/12/16 10:48:35;;;;;;;4.43;2.78;;;11.20;99.90;;;;;;5042047;28;20071;-62
2023/12/16 10:51:04;;;;;;;2.22;1.58;;;11.20;99.90;;;;;;5059251;28;20483;-61
2023/12/16 10:53:37;;;;;;;2.42;1.48;;;11.20;99.90;;;;;;5058948;28;20053;-62
2023/12/16 10:56:10;;;;;;;1.13;0.82;;;11.30;99.90;;;;;;5060860;28;20048;-62
2023/12/16 10:58:42;;;;;;;2.25;0.90;;;11.30;99.90;;;;;;5059360;28;20048;-62
2023/12/16 11:01:18;;;;;;;2.88;1.20;;;11.30;99.90;;;;;;5044010;28;20070;-60
2023/12/16 11:04:11;;;;;;;1.42;1.02;;;11.30;99.90;;;;;;5053012;28;20144;-62
2023/12/16 11:06:51;;;;;;;1.42;0.70;;;11.30;99.90;;;;;;5070042;28;20051;-62
2023/12/16 11:09:18;;;;;;;0.70;0.70;;;11.30;99.90;;;;;;5068560;28;20044;-63
2023/12/16 11:11:45;;;;;;;1.65;0.70;;;11.30;99.90;;;;;;5072769;28;20044;-61
2023/12/16 11:14:13;;;;;;;0.73;0.32;;;11.30;99.90;;;;;;5057172;28;20052;-63
2023/12/16 11:16:40;;;;;;;0.40;0.40;;;11.40;99.90;;;;;;5053166;28;20803;-63
2023/12/16 11:19:07;;;;;;;0.52;0.40;;;11.40;99.90;;;;;;5065176;28;20044;-63
2023/12/16 11:21:34;;;;;;;1.85;0.60;;;11.40;99.90;;;;;;5050785;28;20066;-63
2023/12/16 11:24:01;;;;;;;0.28;0.28;;;11.40;99.90;;;;;;5062600;28;20140;-63
2023/12/16 11:26:30;;;;;;;0.40;0.40;;;11.40;99.90;;;;;;5044212;28;20549;-62
2023/12/16 11:28:57;;;;;;;1.10;0.50;;;11.50;99.90;;;;;;5076971;28;20044;-63
2023/12/16 11:31:26;;;;;;;0.30;0.30;;;11.50;99.90;;;;;;5050177;28;20053;-64
2023/12/16 11:33:52;;;;;;;0.52;0.50;;;11.50;99.90;;;;;;5048960;28;20051;-63
2023/12/16 11:36:45;;;;;;;1.50;0.43;;;11.60;99.90;;;;;;5052636;28;20208;-65
2023/12/16 11:39:38;;;;;;;0.75;0.47;;;11.60;99.90;;;;;;5044808;28;20048;-64
2023/12/16 11:42:06;;;;;;;10.57;0.65;;;11.60;99.90;;;;;;5063221;28;20046;-63
2023/12/16 11:44:52;;;;;;;1.75;0.60;;;11.60;99.90;;;;;;5076975;28;20048;-63
2023/12/16 11:47:26;;;;;;;1.77;0.55;;;11.60;99.90;;;;;;5067562;28;20396;-62
2023/12/16 11:49:54;;;;;;;3.05;0.60;;;11.60;99.90;;;;;;5069860;28;20083;-62
2023/12/16 11:52:23;;;;;;;1.13;0.57;;;11.60;99.90;;;;;;5070069;28;20040;-62
2023/12/16 11:54:56;;;;;;;2.90;0.60;;;11.70;99.90;;;;;;5052066;28;20475;-63
2023/12/16 11:57:25;;;;;;;0.55;0.50;;;11.60;99.90;;;;;;5051720;28;20562;-63
2023/12/16 11:59:53;;;;;;;1.63;0.80;;;11.70;99.90;;;;;;5064629;28;20075;-63
2023/12/16 12:02:20;;;;;;;1.08;0.52;;;11.60;99.90;;;;;;5071259;28;20064;-63
2023/12/16 12:04:47;;;;;;;1.17;0.60;;;11.60;99.90;;;;;;5067306;28;20439;-63
2023/12/16 12:07:14;;;;;;;4.55;0.85;;;11.70;99.90;;;;;;5071197;28;20132;-63
2023/12/16 12:09:42;;;;;;;0.98;0.50;;;11.70;99.90;;;;;;5076170;28;20056;-63
2023/12/16 12:12:09;;;;;;;1.90;0.40;;;11.70;99.90;;;;;;5066720;28;20047;-63
2023/12/16 12:14:41;;;;;;;2.03;0.52;;;11.70;99.90;;;;;;5046420;28;20157;-66
2023/12/16 12:17:08;;;;;;;1.35;0.70;;;11.70;99.90;;;;;;5046041;28;20056;-63
2023/12/16 12:19:35;;;;;;;0.38;0.30;;;11.70;99.90;;;;;;5074637;28;20105;-63
2023/12/16 12:22:02;;;;;;;0.98;0.50;;;11.70;99.90;;;;;;5065672;28;20070;-63
2023/12/16 12:24:29;;;;;;;2.70;0.40;;;11.70;99.90;;;;;;5065662;28;20055;-64
2023/12/16 12:26:56;;;;;;;0.55;0.32;;;11.70;99.90;;;;;;5067253;28;20045;-64
2023/12/16 12:29:23;;;;;;;0.95;0.57;;;11.80;99.90;;;;;;5082440;28;20217;-63
2023/12/16 12:31:52;;;;;;;0.63;0.45;;;11.80;99.90;;;;;;5073963;28;20557;-63
2023/12/16 12:34:19;;;;;;;0.93;0.60;;;11.80;99.90;;;;;;5051954;28;20055;-62
2023/12/16 12:36:46;;;;;;;1.25;0.40;;;11.80;99.90;;;;;;5075406;28;20120;-63
2023/12/16 12:39:19;;;;;;;0.95;0.43;;;11.80;99.90;;;;;;5081211;28;20055;-62
2023/12/16 12:42:00;;;;;;;2.20;1.10;;;11.80;99.90;;;;;;5077291;28;20175;-63
2023/12/16 12:44:28;;;;;;;2.90;1.50;;;11.90;99.90;;;;;;5068173;28;20048;-63
2023/12/16 12:46:54;;;;;;;1.98;1.08;;;11.90;99.90;;;;;;5074862;28;20059;-63
2023/12/16 12:49:35;;;;;;;3.33;0.88;;;11.90;99.90;;;;;;5071512;28;20131;-63
2023/12/16 12:52:03;;;;;;;2.10;0.90;;;11.90;99.90;;;;;;5069775;28;20058;-64